Lebo, Kansas
Current Conditions -  °F | °C
As of 7:32 AM on Saturday 25 Oct 2014 (Local Time) from KEMP Reporting Station
Moderate Fog Moderate Fog  
Wind Chill: 54°   Ceiling: 600
Heat Index: 54°   Visibility: 0.25mi
Dew Point: 54°   Wind: 0mph
Humidity: 100%   Direction: NA
Pressure: 30.05"   Gusts: NA
Location:  38.42°N, 95.85°W
Report Text: KEMP 251232Z AUTO 00000KT 1/4SM FG VV006 12/12 A3005 RMK AO2 T01220122
Loading
Personal Weather Stations






























Interactive Weather Map
Tropical Storm Tracking
New forecast layout! Learn more

10-Day Weather Forecast

Advertisements
Track Severe Weather on mobile